Check out our new PWSWeather beta!
PWSweather.com
Personal Weather Stations
Station Observations
PICKERING
North Yorkshire, PickeringGB

North YorkshirePickeringGB

Lat: 54.2494, Lon: -0.7725

Elevation: 192

Station Type: Oregon Scientific WMR100

High Low Average
Temperature 48.2°F9.0°C 31.3°F-0.4°C 38.0°F3.3°C
Dew Point 37.4°F3.0°C 23.0°F-5.0°C 29.7°F-1.3°C
Winds 12.0 mph 19.3 kmh Calm Calm 5.0 mph N8.0 kmh N
Wind Gusts 17.7 mph28.5 kmh -- 7.0 mph11.3 kmh
Humidity 77% 57% 71%
Pressure 29.39 in995.3 mb 29.18 in988.1 mb -
Precipitation 0.00 in0.0 mm - -
Hour Temp Dew Point Humidity Winds Wind Gusts Pressure Precip Precip Rate Daily Precip Total
12:00 AM 37.8°F3.2°C 30.2°F-1.0°C 73% 7.8 mph N12.6 kmh N 14.8 mph23.8 kmh 29.36 in994.2 mb 0.00 in0.0 mm 0.00 in0.0 mm 0.00 in0.0 mm
12:10 AM 37.4°F3.0°C 30.2°F-1.0°C 73% 4.7 mph N7.6 kmh N 7.6 mph12.2 kmh 29.36 in994.2 mb 0.00 in0.0 mm 0.00 in0.0 mm 0.00 in0.0 mm
12:20 AM 37.4°F3.0°C 30.2°F-1.0°C 73% 4.8 mph N7.7 kmh N 7.6 mph12.2 kmh 29.36 in994.2 mb 0.00 in0.0 mm 0.00 in0.0 mm 0.00 in0.0 mm
12:30 AM 37.6°F3.1°C 30.2°F-1.0°C 73% 5.1 mph N8.2 kmh N 7.6 mph12.2 kmh 29.39 in995.3 mb 0.00 in0.0 mm 0.00 in0.0 mm 0.00 in0.0 mm
12:40 AM 37.6°F3.1°C 30.2°F-1.0°C 74% 6.4 mph N10.3 kmh N 9.8 mph15.8 kmh 29.39 in995.3 mb 0.00 in0.0 mm 0.00 in0.0 mm 0.00 in0.0 mm
12:50 AM 37.8°F3.2°C 30.2°F-1.0°C 74% 7.0 mph N11.3 kmh N 9.8 mph15.8 kmh 29.39 in995.3 mb 0.00 in0.0 mm 0.00 in0.0 mm 0.00 in0.0 mm
01:00 AM 37.8°F3.2°C 30.2°F-1.0°C 74% 7.2 mph N11.6 kmh N 10.1 mph16.3 kmh 29.36 in994.2 mb 0.00 in0.0 mm 0.00 in0.0 mm 0.00 in0.0 mm
01:10 AM 38.3°F3.5°C 30.2°F-1.0°C 73% 6.8 mph N10.9 kmh N 8.5 mph13.7 kmh 29.36 in994.2 mb 0.00 in0.0 mm 0.00 in0.0 mm 0.00 in0.0 mm
01:20 AM 38.5°F3.6°C 30.2°F-1.0°C 73% 5.8 mph N9.3 kmh N 13.2 mph21.2 kmh 29.36 in994.2 mb 0.00 in0.0 mm 0.00 in0.0 mm 0.00 in0.0 mm
01:30 AM 38.5°F3.6°C 30.2°F-1.0°C 73% 5.8 mph N9.3 kmh N 8.7 mph14.0 kmh 29.36 in994.2 mb 0.00 in0.0 mm 0.00 in0.0 mm 0.00 in0.0 mm
01:40 AM 38.3°F3.5°C 30.2°F-1.0°C 73% 7.1 mph N11.4 kmh N 12.1 mph19.5 kmh 29.36 in994.2 mb 0.00 in0.0 mm 0.00 in0.0 mm 0.00 in0.0 mm
01:50 AM 37.9°F3.3°C 30.2°F-1.0°C 73% 6.5 mph N10.5 kmh N 10.5 mph16.9 kmh 29.36 in994.2 mb 0.00 in0.0 mm 0.00 in0.0 mm 0.00 in0.0 mm
02:00 AM 38.3°F3.5°C 30.2°F-1.0°C 73% 9.4 mph N15.1 kmh N 13.2 mph21.2 kmh 29.36 in994.2 mb 0.00 in0.0 mm 0.00 in0.0 mm 0.00 in0.0 mm
02:20 AM 37.8°F3.2°C 30.2°F-1.0°C 72% 8.4 mph N13.5 kmh N 13.0 mph20.9 kmh 29.36 in994.2 mb 0.00 in0.0 mm 0.00 in0.0 mm 0.00 in0.0 mm
02:30 AM 37.8°F3.2°C 30.2°F-1.0°C 72% 10.3 mph N16.6 kmh N 14.3 mph23.0 kmh 29.36 in994.2 mb 0.00 in0.0 mm 0.00 in0.0 mm 0.00 in0.0 mm
02:40 AM 37.8°F3.2°C 30.2°F-1.0°C 72% 10.3 mph N16.6 kmh N 13.0 mph20.9 kmh 29.36 in994.2 mb 0.00 in0.0 mm 0.00 in0.0 mm 0.00 in0.0 mm
02:50 AM 37.8°F3.2°C 30.2°F-1.0°C 72% 9.1 mph N14.6 kmh N 12.1 mph19.5 kmh 29.33 in993.2 mb 0.00 in0.0 mm 0.00 in0.0 mm 0.00 in0.0 mm
03:00 AM 37.4°F3.0°C 30.2°F-1.0°C 72% 9.7 mph N15.6 kmh N 12.3 mph19.8 kmh 29.33 in993.2 mb 0.00 in0.0 mm 0.00 in0.0 mm 0.00 in0.0 mm
03:10 AM 37.2°F2.9°C 30.2°F-1.0°C 72% 6.1 mph N9.8 kmh N 7.4 mph11.9 kmh 29.33 in993.2 mb 0.00 in0.0 mm 0.00 in0.0 mm 0.00 in0.0 mm
03:20 AM 37.2°F2.9°C 30.2°F-1.0°C 72% 6.8 mph N10.9 kmh N 8.5 mph13.7 kmh 29.33 in993.2 mb 0.00 in0.0 mm 0.00 in0.0 mm 0.00 in0.0 mm
03:30 AM 37.0°F2.8°C 30.2°F-1.0°C 72% 7.4 mph N11.9 kmh N 10.3 mph16.6 kmh 29.33 in993.2 mb 0.00 in0.0 mm 0.00 in0.0 mm 0.00 in0.0 mm
03:40 AM 37.0°F2.8°C 30.2°F-1.0°C 72% 7.3 mph N11.7 kmh N 12.3 mph19.8 kmh 29.33 in993.2 mb 0.00 in0.0 mm 0.00 in0.0 mm 0.00 in0.0 mm
03:50 AM 36.7°F2.6°C 30.2°F-1.0°C 72% 5.4 mph N8.7 kmh N 8.5 mph13.7 kmh 29.33 in993.2 mb 0.00 in0.0 mm 0.00 in0.0 mm 0.00 in0.0 mm
04:00 AM 36.7°F2.6°C 28.4°F-2.0°C 71% 6.3 mph N10.1 kmh N 11.4 mph18.3 kmh 29.33 in993.2 mb 0.00 in0.0 mm 0.00 in0.0 mm 0.00 in0.0 mm
04:10 AM 36.3°F2.4°C 28.4°F-2.0°C 71% 5.3 mph N8.5 kmh N 6.7 mph10.8 kmh 29.33 in993.2 mb 0.00 in0.0 mm 0.00 in0.0 mm 0.00 in0.0 mm
04:20 AM 36.3°F2.4°C 28.4°F-2.0°C 71% 7.4 mph N11.9 kmh N 11.9 mph19.2 kmh 29.33 in993.2 mb 0.00 in0.0 mm 0.00 in0.0 mm 0.00 in0.0 mm
04:30 AM 36.3°F2.4°C 28.4°F-2.0°C 72% 5.4 mph N8.7 kmh N 6.0 mph9.7 kmh 29.33 in993.2 mb 0.00 in0.0 mm 0.00 in0.0 mm 0.00 in0.0 mm
04:40 AM 36.0°F2.2°C 28.4°F-2.0°C 72% 4.7 mph N7.6 kmh N 6.0 mph9.7 kmh 29.33 in993.2 mb 0.00 in0.0 mm 0.00 in0.0 mm 0.00 in0.0 mm
04:50 AM 35.8°F2.1°C 28.4°F-2.0°C 73% 4.1 mph N6.6 kmh N 6.5 mph10.5 kmh 29.33 in993.2 mb 0.00 in0.0 mm 0.00 in0.0 mm 0.00 in0.0 mm
05:00 AM 36.1°F2.3°C 28.4°F-2.0°C 73% 5.4 mph N8.7 kmh N 11.0 mph17.7 kmh 29.33 in993.2 mb 0.00 in0.0 mm 0.00 in0.0 mm 0.00 in0.0 mm
05:10 AM 36.3°F2.4°C 28.4°F-2.0°C 73% 4.9 mph N7.9 kmh N 8.5 mph13.7 kmh 29.33 in993.2 mb 0.00 in0.0 mm 0.00 in0.0 mm 0.00 in0.0 mm
05:20 AM 36.3°F2.4°C 28.4°F-2.0°C 73% 4.4 mph N7.1 kmh N 7.4 mph11.9 kmh 29.33 in993.2 mb 0.00 in0.0 mm 0.00 in0.0 mm 0.00 in0.0 mm
05:30 AM 36.0°F2.2°C 28.4°F-2.0°C 74% 3.7 mph N6.0 kmh N 5.8 mph9.3 kmh 29.33 in993.2 mb 0.00 in0.0 mm 0.00 in0.0 mm 0.00 in0.0 mm
05:40 AM 36.0°F2.2°C 28.4°F-2.0°C 74% 4.1 mph N6.6 kmh N 5.6 mph9.0 kmh 29.33 in993.2 mb 0.00 in0.0 mm 0.00 in0.0 mm 0.00 in0.0 mm
05:50 AM 35.6°F2.0°C 28.4°F-2.0°C 74% 2.6 mph N4.2 kmh N 7.2 mph11.6 kmh 29.33 in993.2 mb 0.00 in0.0 mm 0.00 in0.0 mm 0.00 in0.0 mm
06:00 AM 35.1°F1.7°C 28.4°F-2.0°C 74% 2.5 mph N4.0 kmh N 5.4 mph8.7 kmh 29.33 in993.2 mb 0.00 in0.0 mm 0.00 in0.0 mm 0.00 in0.0 mm
06:10 AM 35.2°F1.8°C 28.4°F-2.0°C 74% 3.6 mph N5.8 kmh N 4.9 mph7.9 kmh 29.33 in993.2 mb 0.00 in0.0 mm 0.00 in0.0 mm 0.00 in0.0 mm
06:20 AM 34.9°F1.6°C 28.4°F-2.0°C 74% 3.4 mph N5.5 kmh N 4.7 mph7.6 kmh 29.30 in992.2 mb 0.00 in0.0 mm 0.00 in0.0 mm 0.00 in0.0 mm
06:30 AM 34.3°F1.3°C 28.4°F-2.0°C 75% 1.7 mph N2.7 kmh N 4.7 mph7.6 kmh 29.30 in992.2 mb 0.00 in0.0 mm 0.00 in0.0 mm 0.00 in0.0 mm
06:40 AM 33.8°F1.0°C 26.6°F-3.0°C 75% 2.0 mph N3.2 kmh N 3.4 mph5.5 kmh 29.30 in992.2 mb 0.00 in0.0 mm 0.00 in0.0 mm 0.00 in0.0 mm
06:50 AM 33.6°F0.9°C 26.6°F-3.0°C 75% 1.6 mph N2.6 kmh N 3.1 mph5.0 kmh 29.30 in992.2 mb 0.00 in0.0 mm 0.00 in0.0 mm 0.00 in0.0 mm
07:00 AM 33.4°F0.8°C 26.6°F-3.0°C 75% 0.9 mph N1.4 kmh N 2.9 mph4.7 kmh 29.30 in992.2 mb 0.00 in0.0 mm 0.00 in0.0 mm 0.00 in0.0 mm
07:10 AM 32.7°F0.4°C 26.6°F-3.0°C 75% 0.8 mph N1.3 kmh N 3.4 mph5.5 kmh 29.30 in992.2 mb 0.00 in0.0 mm 0.00 in0.0 mm 0.00 in0.0 mm
07:20 AM 32.4°F0.2°C 26.6°F-3.0°C 76% 0.4 mph N0.6 kmh N 2.0 mph3.2 kmh 29.30 in992.2 mb 0.00 in0.0 mm 0.00 in0.0 mm 0.00 in0.0 mm
07:30 AM 32.4°F0.2°C 26.6°F-3.0°C 76% 0.1 mph N0.2 kmh N 2.0 mph3.2 kmh 29.30 in992.2 mb 0.00 in0.0 mm 0.00 in0.0 mm 0.00 in0.0 mm
07:40 AM 32.7°F0.4°C 26.6°F-3.0°C 77% 0.2 mph N0.3 kmh N 2.0 mph3.2 kmh 29.30 in992.2 mb 0.00 in0.0 mm 0.00 in0.0 mm 0.00 in0.0 mm
07:50 AM 32.5°F0.3°C 26.6°F-3.0°C 77% Calm Calm -- 29.30 in992.2 mb 0.00 in0.0 mm 0.00 in0.0 mm 0.00 in0.0 mm
08:00 AM 32.9°F0.5°C 26.6°F-3.0°C 77% 1.0 mph N1.6 kmh N 3.8 mph6.1 kmh 29.30 in992.2 mb 0.00 in0.0 mm 0.00 in0.0 mm 0.00 in0.0 mm
08:10 AM 33.8°F1.0°C 28.4°F-2.0°C 77% 2.5 mph N4.0 kmh N 4.3 mph6.9 kmh 29.30 in992.2 mb 0.00 in0.0 mm 0.00 in0.0 mm 0.00 in0.0 mm
08:20 AM 34.0°F1.1°C 26.6°F-3.0°C 76% 2.0 mph N3.2 kmh N 4.0 mph6.4 kmh 29.27 in991.2 mb 0.00 in0.0 mm 0.00 in0.0 mm 0.00 in0.0 mm
08:30 AM 34.3°F1.3°C 28.4°F-2.0°C 76% 1.3 mph N2.1 kmh N 2.9 mph4.7 kmh 29.30 in992.2 mb 0.00 in0.0 mm 0.00 in0.0 mm 0.00 in0.0 mm
08:40 AM 35.1°F1.7°C 28.4°F-2.0°C 76% 2.5 mph N4.0 kmh N 4.3 mph6.9 kmh 29.30 in992.2 mb 0.00 in0.0 mm 0.00 in0.0 mm 0.00 in0.0 mm
08:50 AM 35.6°F2.0°C 30.2°F-1.0°C 77% 3.6 mph N5.8 kmh N 7.2 mph11.6 kmh 29.30 in992.2 mb 0.00 in0.0 mm 0.00 in0.0 mm 0.00 in0.0 mm
09:00 AM 36.3°F2.4°C 30.2°F-1.0°C 77% 4.7 mph N7.6 kmh N 6.5 mph10.5 kmh 29.27 in991.2 mb 0.00 in0.0 mm 0.00 in0.0 mm 0.00 in0.0 mm
09:10 AM 36.7°F2.6°C 30.2°F-1.0°C 77% 4.4 mph N7.1 kmh N 6.0 mph9.7 kmh 29.27 in991.2 mb 0.00 in0.0 mm 0.00 in0.0 mm 0.00 in0.0 mm
09:20 AM 36.7°F2.6°C 30.2°F-1.0°C 77% 3.2 mph N5.1 kmh N 6.3 mph10.1 kmh 29.27 in991.2 mb 0.00 in0.0 mm 0.00 in0.0 mm 0.00 in0.0 mm
09:30 AM 37.0°F2.8°C 32.0°F0.0°C 77% 5.0 mph N8.0 kmh N 6.0 mph9.7 kmh 29.27 in991.2 mb 0.00 in0.0 mm 0.00 in0.0 mm 0.00 in0.0 mm
09:40 AM 37.2°F2.9°C 32.0°F0.0°C 77% 4.4 mph N7.1 kmh N 8.7 mph14.0 kmh 29.27 in991.2 mb 0.00 in0.0 mm 0.00 in0.0 mm 0.00 in0.0 mm
09:50 AM 37.6°F3.1°C 32.0°F0.0°C 77% 8.0 mph N12.9 kmh N 10.7 mph17.2 kmh 29.27 in991.2 mb 0.00 in0.0 mm 0.00 in0.0 mm 0.00 in0.0 mm
10:00 AM 37.8°F3.2°C 32.0°F0.0°C 77% 7.8 mph N12.6 kmh N 12.5 mph20.1 kmh 29.27 in991.2 mb 0.00 in0.0 mm 0.00 in0.0 mm 0.00 in0.0 mm
10:10 AM 37.9°F3.3°C 32.0°F0.0°C 76% 8.1 mph N13.0 kmh N 11.9 mph19.2 kmh 29.27 in991.2 mb 0.00 in0.0 mm 0.00 in0.0 mm 0.00 in0.0 mm
10:20 AM 39.2°F4.0°C 32.0°F0.0°C 76% 6.5 mph N10.5 kmh N 10.3 mph16.6 kmh 29.27 in991.2 mb 0.00 in0.0 mm 0.00 in0.0 mm 0.00 in0.0 mm
10:30 AM 40.5°F4.7°C 33.8°F1.0°C 75% 7.9 mph N12.7 kmh N 10.7 mph17.2 kmh 29.27 in991.2 mb 0.00 in0.0 mm 0.00 in0.0 mm 0.00 in0.0 mm
10:40 AM 41.4°F5.2°C 33.8°F1.0°C 74% 8.1 mph N13.0 kmh N 12.3 mph19.8 kmh 29.27 in991.2 mb 0.00 in0.0 mm 0.00 in0.0 mm 0.00 in0.0 mm
10:50 AM 41.7°F5.4°C 33.8°F1.0°C 74% 6.0 mph N9.7 kmh N 9.8 mph15.8 kmh 29.27 in991.2 mb 0.00 in0.0 mm 0.00 in0.0 mm 0.00 in0.0 mm
11:00 AM 41.9°F5.5°C 33.8°F1.0°C 73% 8.4 mph N13.5 kmh N 13.2 mph21.2 kmh 29.27 in991.2 mb 0.00 in0.0 mm 0.00 in0.0 mm 0.00 in0.0 mm
11:10 AM 41.7°F5.4°C 33.8°F1.0°C 72% 7.0 mph N11.3 kmh N 12.8 mph20.6 kmh 29.27 in991.2 mb 0.00 in0.0 mm 0.00 in0.0 mm 0.00 in0.0 mm
11:20 AM 42.3°F5.7°C 33.8°F1.0°C 71% 6.1 mph N9.8 kmh N 8.1 mph13.0 kmh 29.27 in991.2 mb 0.00 in0.0 mm 0.00 in0.0 mm 0.00 in0.0 mm
11:30 AM 43.7°F6.5°C 35.6°F2.0°C 70% 3.9 mph N6.3 kmh N 6.0 mph9.7 kmh 29.27 in991.2 mb 0.00 in0.0 mm 0.00 in0.0 mm 0.00 in0.0 mm
11:40 AM 46.8°F8.2°C 37.4°F3.0°C 68% 7.1 mph N11.4 kmh N 12.5 mph20.1 kmh 29.27 in991.2 mb 0.00 in0.0 mm 0.00 in0.0 mm 0.00 in0.0 mm
11:50 AM 46.0°F7.8°C 35.6°F2.0°C 66% 8.2 mph N13.2 kmh N 12.1 mph19.5 kmh 29.27 in991.2 mb 0.00 in0.0 mm 0.00 in0.0 mm 0.00 in0.0 mm
12:00 PM 48.2°F9.0°C 37.4°F3.0°C 63% 11.8 mph N19.0 kmh N 17.4 mph28.0 kmh 29.27 in991.2 mb 0.00 in0.0 mm 0.00 in0.0 mm 0.00 in0.0 mm
12:10 PM 45.5°F7.5°C 33.8°F1.0°C 63% 10.5 mph N16.9 kmh N 15.4 mph24.8 kmh 29.27 in991.2 mb 0.00 in0.0 mm 0.00 in0.0 mm 0.00 in0.0 mm
12:20 PM 45.5°F7.5°C 33.8°F1.0°C 63% 7.7 mph N12.4 kmh N 12.5 mph20.1 kmh 29.27 in991.2 mb 0.00 in0.0 mm 0.00 in0.0 mm 0.00 in0.0 mm
12:30 PM 47.1°F8.4°C 35.6°F2.0°C 62% 10.5 mph N16.9 kmh N 12.5 mph20.1 kmh 29.27 in991.2 mb 0.00 in0.0 mm 0.00 in0.0 mm 0.00 in0.0 mm
12:40 PM 46.4°F8.0°C 33.8°F1.0°C 61% 8.1 mph N13.0 kmh N 13.0 mph20.9 kmh 29.27 in991.2 mb 0.00 in0.0 mm 0.00 in0.0 mm 0.00 in0.0 mm
12:50 PM 45.0°F7.2°C 33.8°F1.0°C 62% 7.5 mph N12.1 kmh N 10.3 mph16.6 kmh 29.24 in990.2 mb 0.00 in0.0 mm 0.00 in0.0 mm 0.00 in0.0 mm
01:00 PM 45.9°F7.7°C 33.8°F1.0°C 61% 8.4 mph N13.5 kmh N 11.0 mph17.7 kmh 29.24 in990.2 mb 0.00 in0.0 mm 0.00 in0.0 mm 0.00 in0.0 mm
01:10 PM 45.3°F7.4°C 32.0°F0.0°C 60% 8.7 mph N14.0 kmh N 12.8 mph20.6 kmh 29.24 in990.2 mb 0.00 in0.0 mm 0.00 in0.0 mm 0.00 in0.0 mm
01:20 PM 45.9°F7.7°C 33.8°F1.0°C 60% 7.8 mph N12.6 kmh N 12.5 mph20.1 kmh 29.24 in990.2 mb 0.00 in0.0 mm 0.00 in0.0 mm 0.00 in0.0 mm
01:30 PM 46.2°F7.9°C 33.8°F1.0°C 60% 7.2 mph N11.6 kmh N 10.5 mph16.9 kmh 29.24 in990.2 mb 0.00 in0.0 mm 0.00 in0.0 mm 0.00 in0.0 mm
01:40 PM 45.0°F7.2°C 32.0°F0.0°C 60% 7.3 mph N11.7 kmh N 10.3 mph16.6 kmh 29.24 in990.2 mb 0.00 in0.0 mm 0.00 in0.0 mm 0.00 in0.0 mm
01:50 PM 44.8°F7.1°C 32.0°F0.0°C 61% 7.2 mph N11.6 kmh N 9.6 mph15.4 kmh 29.24 in990.2 mb 0.00 in0.0 mm 0.00 in0.0 mm 0.00 in0.0 mm
02:00 PM 45.5°F7.5°C 33.8°F1.0°C 60% 8.0 mph N12.9 kmh N 10.7 mph17.2 kmh 29.21 in989.2 mb 0.00 in0.0 mm 0.00 in0.0 mm 0.00 in0.0 mm
02:10 PM 46.4°F8.0°C 33.8°F1.0°C 58% 10.6 mph N17.1 kmh N 13.6 mph21.9 kmh 29.21 in989.2 mb 0.00 in0.0 mm 0.00 in0.0 mm 0.00 in0.0 mm
02:20 PM 44.8°F7.1°C 30.2°F-1.0°C 57% 12.0 mph N19.3 kmh N 17.7 mph28.5 kmh 29.24 in990.2 mb 0.00 in0.0 mm 0.00 in0.0 mm 0.00 in0.0 mm
02:30 PM 45.5°F7.5°C 32.0°F0.0°C 58% 10.3 mph N16.6 kmh N 12.8 mph20.6 kmh 29.21 in989.2 mb 0.00 in0.0 mm 0.00 in0.0 mm 0.00 in0.0 mm
02:40 PM 45.1°F7.3°C 30.2°F-1.0°C 57% 9.4 mph N15.1 kmh N 12.8 mph20.6 kmh 29.21 in989.2 mb 0.00 in0.0 mm 0.00 in0.0 mm 0.00 in0.0 mm
02:50 PM 45.1°F7.3°C 30.2°F-1.0°C 57% 7.9 mph N12.7 kmh N 11.0 mph17.7 kmh 29.21 in989.2 mb 0.00 in0.0 mm 0.00 in0.0 mm 0.00 in0.0 mm
03:00 PM 45.9°F7.7°C 32.0°F0.0°C 58% 7.6 mph N12.2 kmh N 12.5 mph20.1 kmh 29.21 in989.2 mb 0.00 in0.0 mm 0.00 in0.0 mm 0.00 in0.0 mm
03:10 PM 45.5°F7.5°C 32.0°F0.0°C 58% 7.3 mph N11.7 kmh N 10.3 mph16.6 kmh 29.21 in989.2 mb 0.00 in0.0 mm 0.00 in0.0 mm 0.00 in0.0 mm
03:20 PM 45.0°F7.2°C 32.0°F0.0°C 58% 6.5 mph N10.5 kmh N 11.2 mph18.0 kmh 29.21 in989.2 mb 0.00 in0.0 mm 0.00 in0.0 mm 0.00 in0.0 mm
03:30 PM 44.2°F6.8°C 30.2°F-1.0°C 58% 6.0 mph N9.7 kmh N 8.7 mph14.0 kmh 29.21 in989.2 mb 0.00 in0.0 mm 0.00 in0.0 mm 0.00 in0.0 mm
03:40 PM 43.9°F6.6°C 30.2°F-1.0°C 59% 5.0 mph N8.0 kmh N 6.9 mph11.1 kmh 29.21 in989.2 mb 0.00 in0.0 mm 0.00 in0.0 mm 0.00 in0.0 mm
03:50 PM 43.5°F6.4°C 30.2°F-1.0°C 60% 2.9 mph N4.7 kmh N 3.8 mph6.1 kmh 29.21 in989.2 mb 0.00 in0.0 mm 0.00 in0.0 mm 0.00 in0.0 mm
04:00 PM 42.8°F6.0°C 30.2°F-1.0°C 61% 6.7 mph N10.8 kmh N 10.3 mph16.6 kmh 29.21 in989.2 mb 0.00 in0.0 mm 0.00 in0.0 mm 0.00 in0.0 mm
04:10 PM 42.1°F5.6°C 30.2°F-1.0°C 62% 7.0 mph N11.3 kmh N 8.7 mph14.0 kmh 29.21 in989.2 mb 0.00 in0.0 mm 0.00 in0.0 mm 0.00 in0.0 mm
04:20 PM 41.5°F5.3°C 30.2°F-1.0°C 62% 6.2 mph N10.0 kmh N 13.6 mph21.9 kmh 29.21 in989.2 mb 0.00 in0.0 mm 0.00 in0.0 mm 0.00 in0.0 mm
04:30 PM 41.2°F5.1°C 30.2°F-1.0°C 63% 3.6 mph N5.8 kmh N 6.5 mph10.5 kmh 29.21 in989.2 mb 0.00 in0.0 mm 0.00 in0.0 mm 0.00 in0.0 mm
04:40 PM 40.5°F4.7°C 30.2°F-1.0°C 64% 3.7 mph N6.0 kmh N 6.5 mph10.5 kmh 29.21 in989.2 mb 0.00 in0.0 mm 0.00 in0.0 mm 0.00 in0.0 mm
04:50 PM 40.1°F4.5°C 30.2°F-1.0°C 65% 3.1 mph N5.0 kmh N 4.7 mph7.6 kmh 29.21 in989.2 mb 0.00 in0.0 mm 0.00 in0.0 mm 0.00 in0.0 mm
05:00 PM 39.9°F4.4°C 30.2°F-1.0°C 66% 2.5 mph N4.0 kmh N 3.8 mph6.1 kmh 29.18 in988.1 mb 0.00 in0.0 mm 0.00 in0.0 mm 0.00 in0.0 mm
05:10 PM 39.6°F4.2°C 30.2°F-1.0°C 67% 2.7 mph N4.3 kmh N 4.9 mph7.9 kmh 29.18 in988.1 mb 0.00 in0.0 mm 0.00 in0.0 mm 0.00 in0.0 mm
05:20 PM 39.0°F3.9°C 30.2°F-1.0°C 68% 2.4 mph N3.9 kmh N 5.4 mph8.7 kmh 29.18 in988.1 mb 0.00 in0.0 mm 0.00 in0.0 mm 0.00 in0.0 mm
05:30 PM 38.8°F3.8°C 30.2°F-1.0°C 69% 2.4 mph N3.9 kmh N 5.4 mph8.7 kmh 29.18 in988.1 mb 0.00 in0.0 mm 0.00 in0.0 mm 0.00 in0.0 mm
05:40 PM 38.5°F3.6°C 30.2°F-1.0°C 69% 3.7 mph N6.0 kmh N 5.6 mph9.0 kmh 29.18 in988.1 mb 0.00 in0.0 mm 0.00 in0.0 mm 0.00 in0.0 mm
05:50 PM 38.1°F3.4°C 30.2°F-1.0°C 70% 2.2 mph N3.5 kmh N 3.8 mph6.1 kmh 29.18 in988.1 mb 0.00 in0.0 mm 0.00 in0.0 mm 0.00 in0.0 mm
06:00 PM 38.3°F3.5°C 30.2°F-1.0°C 70% 3.2 mph N5.1 kmh N 3.8 mph6.1 kmh 29.18 in988.1 mb 0.00 in0.0 mm 0.00 in0.0 mm 0.00 in0.0 mm
06:10 PM 38.3°F3.5°C 30.2°F-1.0°C 70% 2.6 mph N4.2 kmh N 4.7 mph7.6 kmh 29.18 in988.1 mb 0.00 in0.0 mm 0.00 in0.0 mm 0.00 in0.0 mm
06:20 PM 38.3°F3.5°C 30.2°F-1.0°C 70% 2.7 mph N4.3 kmh N 3.1 mph5.0 kmh 29.18 in988.1 mb 0.00 in0.0 mm 0.00 in0.0 mm 0.00 in0.0 mm
06:30 PM 37.9°F3.3°C 30.2°F-1.0°C 71% 2.3 mph N3.7 kmh N 2.7 mph4.3 kmh 29.18 in988.1 mb 0.00 in0.0 mm 0.00 in0.0 mm 0.00 in0.0 mm
06:40 PM 37.4°F3.0°C 30.2°F-1.0°C 72% 2.8 mph N4.5 kmh N 4.3 mph6.9 kmh 29.18 in988.1 mb 0.00 in0.0 mm 0.00 in0.0 mm 0.00 in0.0 mm
06:50 PM 37.0°F2.8°C 30.2°F-1.0°C 72% 1.4 mph N2.3 kmh N 2.9 mph4.7 kmh 29.18 in988.1 mb 0.00 in0.0 mm 0.00 in0.0 mm 0.00 in0.0 mm
07:00 PM 36.7°F2.6°C 30.2°F-1.0°C 73% 1.7 mph N2.7 kmh N 2.9 mph4.7 kmh 29.18 in988.1 mb 0.00 in0.0 mm 0.00 in0.0 mm 0.00 in0.0 mm
07:10 PM 36.3°F2.4°C 28.4°F-2.0°C 73% 0.9 mph N1.4 kmh N 2.5 mph4.0 kmh 29.18 in988.1 mb 0.00 in0.0 mm 0.00 in0.0 mm 0.00 in0.0 mm
07:20 PM 36.1°F2.3°C 28.4°F-2.0°C 73% 1.1 mph N1.8 kmh N 2.7 mph4.3 kmh 29.18 in988.1 mb 0.00 in0.0 mm 0.00 in0.0 mm 0.00 in0.0 mm
07:30 PM 35.8°F2.1°C 28.4°F-2.0°C 74% 1.6 mph N2.6 kmh N 3.4 mph5.5 kmh 29.18 in988.1 mb 0.00 in0.0 mm 0.00 in0.0 mm 0.00 in0.0 mm
07:40 PM 35.4°F1.9°C 28.4°F-2.0°C 74% 1.5 mph N2.4 kmh N 3.1 mph5.0 kmh 29.18 in988.1 mb 0.00 in0.0 mm 0.00 in0.0 mm 0.00 in0.0 mm
07:50 PM 35.1°F1.7°C 28.4°F-2.0°C 74% 1.7 mph N2.7 kmh N 2.5 mph4.0 kmh 29.18 in988.1 mb 0.00 in0.0 mm 0.00 in0.0 mm 0.00 in0.0 mm
08:00 PM 34.9°F1.6°C 28.4°F-2.0°C 74% 2.3 mph N3.7 kmh N 3.8 mph6.1 kmh 29.18 in988.1 mb 0.00 in0.0 mm 0.00 in0.0 mm 0.00 in0.0 mm
08:10 PM 34.5°F1.4°C 28.4°F-2.0°C 75% 1.7 mph N2.7 kmh N 3.6 mph5.8 kmh 29.18 in988.1 mb 0.00 in0.0 mm 0.00 in0.0 mm 0.00 in0.0 mm
08:20 PM 34.5°F1.4°C 28.4°F-2.0°C 75% 2.0 mph N3.2 kmh N 4.3 mph6.9 kmh 29.18 in988.1 mb 0.00 in0.0 mm 0.00 in0.0 mm 0.00 in0.0 mm
08:30 PM 34.2°F1.2°C 28.4°F-2.0°C 75% 1.4 mph N2.3 kmh N 3.4 mph5.5 kmh 29.18 in988.1 mb 0.00 in0.0 mm 0.00 in0.0 mm 0.00 in0.0 mm
08:40 PM 33.8°F1.0°C 26.6°F-3.0°C 75% 0.6 mph N1.0 kmh N 2.5 mph4.0 kmh 29.18 in988.1 mb 0.00 in0.0 mm 0.00 in0.0 mm 0.00 in0.0 mm
08:50 PM 33.6°F0.9°C 26.6°F-3.0°C 75% 0.3 mph N0.5 kmh N 2.0 mph3.2 kmh 29.18 in988.1 mb 0.00 in0.0 mm 0.00 in0.0 mm 0.00 in0.0 mm
09:00 PM 33.3°F0.7°C 26.6°F-3.0°C 76% Calm Calm -- 29.18 in988.1 mb 0.00 in0.0 mm 0.00 in0.0 mm 0.00 in0.0 mm
09:10 PM 33.1°F0.6°C 26.6°F-3.0°C 76% 0.1 mph N0.2 kmh N 0.9 mph1.4 kmh 29.18 in988.1 mb 0.00 in0.0 mm 0.00 in0.0 mm 0.00 in0.0 mm
09:20 PM 33.1°F0.6°C 26.6°F-3.0°C 76% 0.2 mph N0.3 kmh N 0.9 mph1.4 kmh 29.18 in988.1 mb 0.00 in0.0 mm 0.00 in0.0 mm 0.00 in0.0 mm
09:30 PM 33.3°F0.7°C 26.6°F-3.0°C 76% 1.9 mph N3.1 kmh N 4.0 mph6.4 kmh 29.18 in988.1 mb 0.00 in0.0 mm 0.00 in0.0 mm 0.00 in0.0 mm
09:40 PM 32.2°F0.1°C 26.6°F-3.0°C 76% 0.2 mph N0.3 kmh N 1.3 mph2.1 kmh 29.18 in988.1 mb 0.00 in0.0 mm 0.00 in0.0 mm 0.00 in0.0 mm
09:50 PM 32.4°F0.2°C 26.6°F-3.0°C 76% 1.6 mph N2.6 kmh N 2.7 mph4.3 kmh 29.18 in988.1 mb 0.00 in0.0 mm 0.00 in0.0 mm 0.00 in0.0 mm
10:00 PM 32.4°F0.2°C 26.6°F-3.0°C 76% 1.2 mph N1.9 kmh N 2.5 mph4.0 kmh 29.18 in988.1 mb 0.00 in0.0 mm 0.00 in0.0 mm 0.00 in0.0 mm
10:10 PM 32.0°F0.0°C 23.0°F-5.0°C 76% 0.6 mph N1.0 kmh N 1.1 mph1.8 kmh 29.18 in988.1 mb 0.00 in0.0 mm 0.00 in0.0 mm 0.00 in0.0 mm
10:20 PM 32.0°F0.0°C 24.8°F-4.0°C 77% 1.4 mph N2.3 kmh N 2.2 mph3.5 kmh 29.18 in988.1 mb 0.00 in0.0 mm 0.00 in0.0 mm 0.00 in0.0 mm
10:30 PM 32.0°F0.0°C 24.8°F-4.0°C 77% 1.8 mph N2.9 kmh N 4.9 mph7.9 kmh 29.18 in988.1 mb 0.00 in0.0 mm 0.00 in0.0 mm 0.00 in0.0 mm
10:40 PM 32.0°F0.0°C 24.8°F-4.0°C 77% 1.4 mph N2.3 kmh N 3.1 mph5.0 kmh 29.18 in988.1 mb 0.00 in0.0 mm 0.00 in0.0 mm 0.00 in0.0 mm
10:50 PM 31.8°F-0.1°C 24.8°F-4.0°C 77% 0.3 mph N0.5 kmh N 2.7 mph4.3 kmh 29.18 in988.1 mb 0.00 in0.0 mm 0.00 in0.0 mm 0.00 in0.0 mm
11:00 PM 31.3°F-0.4°C 23.0°F-5.0°C 77% Calm Calm -- 29.18 in988.1 mb 0.00 in0.0 mm 0.00 in0.0 mm 0.00 in0.0 mm
11:10 PM 31.5°F-0.3°C 23.0°F-5.0°C 77% Calm Calm -- 29.18 in988.1 mb 0.00 in0.0 mm 0.00 in0.0 mm 0.00 in0.0 mm
11:20 PM 31.8°F-0.1°C 24.8°F-4.0°C 77% Calm Calm -- 29.18 in988.1 mb 0.00 in0.0 mm 0.00 in0.0 mm 0.00 in0.0 mm
11:30 PM 31.8°F-0.1°C 24.8°F-4.0°C 77% Calm Calm -- 29.18 in988.1 mb 0.00 in0.0 mm 0.00 in0.0 mm 0.00 in0.0 mm
11:40 PM 32.0°F0.0°C 24.8°F-4.0°C 77% Calm Calm -- 29.21 in989.2 mb 0.00 in0.0 mm 0.00 in0.0 mm 0.00 in0.0 mm
11:50 PM 32.2°F0.1°C 26.6°F-3.0°C 77% 0.6 mph N1.0 kmh N 2.9 mph4.7 kmh 29.21 in989.2 mb 0.00 in0.0 mm 0.00 in0.0 mm 0.00 in0.0 mm